Time;durP1;ratioP1;P1;durP2;ratioP2;P2;SDS_P1;SDS_P2;PMS_P1;PMS_P2;Temp;Humidity;BMP_temperature;BMP_pressure;BME280_temperature;BME280_humidity;BME280_pressure;Samples;Min_cycle;Max_cycle;Signal;HPM_P1;HPM_P2
2022/12/21 00:00:52;;;;;;;;;;;;;;;4.87;100.00;96397.22;5074378;28;19952;-74
2022/12/21 00:03:18;;;;;;;;;;;;;;;4.86;100.00;96412.03;5075006;28;20355;-73
2022/12/21 00:05:44;;;;;;;;;;;;;;;4.87;100.00;96408.44;5074566;28;19954;-74
2022/12/21 00:08:10;;;;;;;;;;;;;;;4.89;100.00;96403.03;5074454;28;19951;-74
2022/12/21 00:10:36;;;;;;;;;;;;;;;4.90;100.00;96396.88;5073529;28;19964;-73
2022/12/21 00:13:02;;;;;;;;;;;;;;;4.90;100.00;96409.06;5074207;28;20404;-75
2022/12/21 00:15:28;;;;;;;;;;;;;;;4.91;100.00;96395.06;5073879;28;19950;-74
2022/12/21 00:17:54;;;;;;;;;;;;;;;4.93;100.00;96401.69;5073984;28;20372;-76
2022/12/21 00:20:20;;;;;;;;;;;;;;;4.96;100.00;96397.94;5074209;28;19949;-74
2022/12/21 00:22:45;;;;;;;;;;;;;;;4.96;100.00;96409.13;5074039;28;19951;-75
2022/12/21 00:25:11;;;;;;;;;;;;;;;4.98;100.00;96408.97;5074283;28;19955;-74
2022/12/21 00:27:37;;;;;;;;;;;;;;;4.97;100.00;96404.75;5073939;28;20033;-74
2022/12/21 00:30:03;;;;;;;;;;;;;;;4.97;100.00;96396.94;5074041;28;19959;-74
2022/12/21 00:32:29;;;;;;;;;;;;;;;4.96;100.00;96411.75;5073701;28;19972;-74
2022/12/21 00:34:55;;;;;;;;;;;;;;;4.94;100.00;96403.31;5073874;28;19975;-74
2022/12/21 00:37:21;;;;;;;;;;;;;;;4.92;100.00;96400.09;5073842;28;20029;-74
2022/12/21 00:39:47;;;;;;;;;;;;;;;4.92;100.00;96399.28;5055909;28;20046;-74
2022/12/21 00:42:14;;;;;;;;;;;;;;;4.91;100.00;96406.28;5073809;28;19952;-73
2022/12/21 00:44:40;;;;;;;;;;;;;;;4.89;100.00;96392.66;5074153;28;19954;-74
2022/12/21 00:47:06;;;;;;;;;;;;;;;4.89;100.00;96400.44;5073954;28;20001;-73
2022/12/21 00:49:32;;;;;;;;;;;;;;;4.91;100.00;96403.66;5074157;28;19961;-74
2022/12/21 00:51:58;;;;;;;;;;;;;;;4.92;100.00;96399.28;5073839;28;19971;-73
2022/12/21 00:54:23;;;;;;;;;;;;;;;4.94;100.00;96389.53;5073765;28;19997;-73
2022/12/21 00:56:49;;;;;;;;;;;;;;;4.94;100.00;96385.13;5073527;28;19960;-73
2022/12/21 00:59:15;;;;;;;;;;;;;;;4.94;100.00;96392.94;5073134;28;19957;-74
2022/12/21 01:01:41;;;;;;;;;;;;;;;4.94;100.00;96392.94;5074290;28;19999;-74
2022/12/21 01:04:07;;;;;;;;;;;;;;;4.94;100.00;96389.53;5074180;28;20048;-73
2022/12/21 01:06:34;;;;;;;;;;;;;;;4.93;100.00;96390.50;5073647;28;20484;-74
2022/12/21 01:09:00;;;;;;;;;;;;;;;4.92;100.00;96391.50;5073740;28;20421;-74
2022/12/21 01:11:28;;;;;;;;;;;;;;;4.91;100.00;96385.47;5073783;28;20324;-74
2022/12/21 01:13:55;;;;;;;;;;;;;;;4.91;100.00;96390.69;5074007;28;19962;-73
2022/12/21 01:16:22;;;;;;;;;;;;;;;4.92;100.00;96396.69;5073481;28;19947;-74
2022/12/21 01:18:49;;;;;;;;;;;;;;;4.93;100.00;96388.69;5073573;28;19949;-74
2022/12/21 01:21:16;;;;;;;;;;;;;;;4.91;100.00;96385.47;5072698;28;20314;-74
2022/12/21 01:23:42;;;;;;;;;;;;;;;4.92;100.00;96394.91;5073144;28;19960;-76
2022/12/21 01:26:08;;;;;;;;;;;;;;;4.93;100.00;96388.69;5073418;28;19954;-73
2022/12/21 01:28:34;;;;;;;;;;;;;;;4.92;100.00;96389.69;5073685;28;20385;-74
2022/12/21 01:31:03;;;;;;;;;;;;;;;4.92;100.00;96392.31;5073372;28;19963;-74
2022/12/21 01:33:29;;;;;;;;;;;;;;;4.92;100.00;96392.31;5073493;28;19970;-74
2022/12/21 01:35:55;;;;;;;;;;;;;;;4.93;100.00;96395.69;5073158;28;19976;-74
2022/12/21 01:38:21;;;;;;;;;;;;;;;4.92;100.00;96394.91;5073208;28;20346;-74
2022/12/21 01:40:47;;;;;;;;;;;;;;;4.93;100.00;96386.09;5073243;28;20423;-74
2022/12/21 01:43:32;;;;;;;;;;;;;;;4.94;100.00;96390.31;5073329;28;19961;-74
2022/12/21 01:45:58;;;;;;;;;;;;;;;4.96;100.00;96384.94;5073105;28;19956;-74
2022/12/21 01:48:24;;;;;;;;;;;;;;;4.96;100.00;96385.75;5073523;28;20332;-75
2022/12/21 01:51:10;;;;;;;;;;;;;;;4.97;100.00;96376.94;5073098;28;20054;-75
2022/12/21 01:53:39;;;;;;;;;;;;;;;4.98;100.00;96372.59;5072857;28;19971;-75
2022/12/21 01:56:07;;;;;;;;;;;;;;;4.98;100.00;96373.38;5073219;28;19958;-74
2022/12/21 01:58:33;;;;;;;;;;;;;;;4.96;100.00;96371.97;5072892;28;19950;-74
2022/12/21 02:01:01;;;;;;;;;;;;;;;4.94;100.00;96368.75;5073157;28;19963;-74
2022/12/21 02:03:29;;;;;;;;;;;;;;;4.92;100.00;96371.50;5072888;28;19947;-74
2022/12/21 02:06:04;;;;;;;;;;;;;;;4.92;100.00;96370.72;5073151;28;19945;-74
2022/12/21 02:08:30;;;;;;;;;;;;;;;4.90;100.00;96368.28;5073320;28;20409;-74
2022/12/21 02:10:58;;;;;;;;;;;;;;;4.88;100.00;96357.28;5077022;28;19951;-74
2022/12/21 02:13:23;;;;;;;;;;;;;;;4.88;100.00;96370.28;5076482;28;19957;-74
2022/12/21 02:15:58;;;;;;;;;;;;;;;4.83;100.00;96372.59;5075415;28;20004;-75
2022/12/21 02:18:27;;;;;;;;;;;;;;;4.81;100.00;96374.59;5076529;28;20285;-74
2022/12/21 02:21:12;;;;;;;;;;;;;;;4.79;100.00;96368.78;5076282;28;19953;-74
2022/12/21 02:23:56;;;;;;;;;;;;;;;4.78;100.00;96372.34;5076641;28;19949;-74
2022/12/21 02:26:28;;;;;;;;;;;;;;;4.78;100.00;96369.75;5069361;28;19952;-75
2022/12/21 02:29:12;;;;;;;;;;;;;;;4.78;100.00;96374.94;5076108;28;19957;-74
2022/12/21 02:31:47;;;;;;;;;;;;;;;4.80;100.00;96371.19;5076177;28;20442;-74
2022/12/21 02:34:28;;;;;;;;;;;;;;;4.82;100.00;96366.59;5076228;28;19963;-74
2022/12/21 02:37:26;;;;;;;;;;;;;;;4.90;100.00;96367.50;5076257;28;20334;-74
2022/12/21 02:39:52;;;;;;;;;;;;;;;4.93;100.00;96361.91;5028587;28;19951;-74
2022/12/21 02:45:34;;;;;;;;;;;;;;;4.96;100.00;96348.56;5076176;28;19950;-75
2022/12/21 02:48:06;;;;;;;;;;;;;;;5.00;100.00;96349.81;5061755;28;19959;-74
2022/12/21 02:50:34;;;;;;;;;;;;;;;5.02;100.00;96351.22;5075930;28;19952;-74
2022/12/21 02:53:12;;;;;;;;;;;;;;;5.05;100.00;96357.84;5075778;28;19957;-74
2022/12/21 02:55:37;;;;;;;;;;;;;;;5.07;100.00;96351.47;5076022;28;19952;-74
2022/12/21 02:58:22;;;;;;;;;;;;;;;5.09;100.00;96356.50;5075624;28;19948;-74
2022/12/21 03:00:51;;;;;;;;;;;;;;;5.09;100.00;96351.28;5075788;28;19952;-74
2022/12/21 03:03:48;;;;;;;;;;;;;;;5.13;100.00;96354.34;5075813;28;19958;-74
2022/12/21 03:06:17;;;;;;;;;;;;;;;5.16;100.00;96356.53;5075786;28;19948;-74
2022/12/21 03:08:43;;;;;;;;;;;;;;;5.14;100.00;96354.13;5075533;28;19952;-74
2022/12/21 03:11:09;;;;;;;;;;;;;;;5.15;100.00;96357.56;5075763;28;19994;-74
2022/12/21 03:13:41;;;;;;;;;;;;;;;5.15;100.00;96355.75;5075417;28;20424;-74
2022/12/21 03:16:10;;;;;;;;;;;;;;;5.15;100.00;96352.34;5075711;28;19943;-74
2022/12/21 03:18:38;;;;;;;;;;;;;;;5.15;100.00;96360.16;5075157;28;19950;-74
2022/12/21 03:21:08;;;;;;;;;;;;;;;5.16;100.00;96356.53;5074742;28;19950;-74
2022/12/21 03:23:42;;;;;;;;;;;;;;;5.17;100.00;96353.78;5075608;28;19951;-74
2022/12/21 03:26:08;;;;;;;;;;;;;;;5.20;100.00;96347.38;5075092;28;19943;-74
2022/12/21 03:28:37;;;;;;;;;;;;;;;5.21;100.00;96342.00;5074946;28;20320;-74
2022/12/21 03:31:06;;;;;;;;;;;;;;;5.22;100.00;96343.59;5075285;28;19951;-74
2022/12/21 03:33:36;;;;;;;;;;;;;;;5.25;100.00;96337.25;5074798;28;19968;-74
2022/12/21 03:36:05;;;;;;;;;;;;;;;5.30;100.00;96342.69;5074988;28;19983;-74
2022/12/21 03:38:34;;;;;;;;;;;;;;;5.34;100.00;96337.91;5075008;28;19949;-74
2022/12/21 03:41:01;;;;;;;;;;;;;;;5.37;100.00;96334.94;5074793;28;19956;-74
2022/12/21 03:43:30;;;;;;;;;;;;;;;5.41;100.00;96336.16;5074849;28;19946;-74
2022/12/21 03:45:59;;;;;;;;;;;;;;;5.43;100.00;96336.78;5075092;28;19951;-74
2022/12/21 03:48:28;;;;;;;;;;;;;;;5.42;100.00;96333.38;5074868;28;19957;-74
2022/12/21 03:50:58;;;;;;;;;;;;;;;5.44;100.00;96330.59;5074647;28;19947;-74
2022/12/21 03:53:44;;;;;;;;;;;;;;;5.48;100.00;96324.00;5074629;28;19961;-76
2022/12/21 03:56:13;;;;;;;;;;;;;;;5.47;100.00;96318.00;5062708;28;20327;-74
2022/12/21 03:58:38;;;;;;;;;;;;;;;5.49;100.00;96323.81;5074354;28;19957;-74
2022/12/21 04:01:13;;;;;;;;;;;;;;;5.51;100.00;96325.44;5074468;28;19963;-76
2022/12/21 04:03:42;;;;;;;;;;;;;;;5.52;100.00;96319.25;5074644;28;19958;-74
2022/12/21 04:06:17;;;;;;;;;;;;;;;5.54;100.00;96319.84;5074400;28;19958;-75
2022/12/21 04:08:44;;;;;;;;;;;;;;;5.54;100.00;96319.84;5074692;28;19953;-74
2022/12/21 04:12:35;;;;;;;;;;;;;;;5.53;100.00;96318.28;5074266;28;19950;-74
2022/12/21 04:13:59;;;;;;;;;;;;;;;5.53;100.00;96315.66;5074529;28;19967;-74
2022/12/21 04:16:25;;;;;;;;;;;;;;;5.54;100.00;96306.84;5056312;28;20425;-74
2022/12/21 04:21:36;;;;;;;;;;;;;;;5.56;100.00;96312.66;5074580;28;19959;-74
2022/12/21 04:29:30;;;;;;;;;;;;;;;5.59;100.00;96313.09;5074429;28;20417;-75
2022/12/21 04:31:56;;;;;;;;;;;;;;;5.59;100.00;96307.91;5056008;28;19958;-74
2022/12/21 04:34:22;;;;;;;;;;;;;;;5.58;100.00;96310.69;5073757;28;20500;-76
2022/12/21 04:37:49;;;;;;;;;;;;;;;5.57;100.00;96314.28;5074163;28;20044;-74
2022/12/21 04:39:43;;;;;;;;;;;;;;;5.55;100.00;96306.66;5060514;28;20335;-75
2022/12/21 04:42:09;;;;;;;;;;;;;;;5.55;100.00;96317.06;5073859;28;19951;-74
2022/12/21 04:44:35;;;;;;;;;;;;;;;5.55;100.00;96316.28;5074120;28;20391;-75
2022/12/21 04:47:01;;;;;;;;;;;;;;;5.53;100.00;96308.66;5073866;28;19959;-74
2022/12/21 04:49:27;;;;;;;;;;;;;;;5.54;100.00;96305.03;5073748;28;20006;-75
2022/12/21 04:51:53;;;;;;;;;;;;;;;5.55;100.00;96313.69;5073816;28;19990;-76
2022/12/21 04:54:19;;;;;;;;;;;;;;;5.55;100.00;96316.28;5073532;28;20003;-74
2022/12/21 04:56:44;;;;;;;;;;;;;;;5.57;100.00;96319.50;5073728;28;20435;-74
2022/12/21 04:59:10;;;;;;;;;;;;;;;5.55;100.00;96317.06;5073757;28;19969;-74
2022/12/21 05:01:36;;;;;;;;;;;;;;;5.56;100.00;96307.47;5073813;28;19954;-75
2022/12/21 05:04:05;;;;;;;;;;;;;;;5.55;100.00;96314.47;5073999;28;19992;-74
2022/12/21 05:06:31;;;;;;;;;;;;;;;5.56;100.00;96316.06;5073753;28;19956;-74
2022/12/21 05:08:57;;;;;;;;;;;;;;;5.59;100.00;96309.72;5073573;28;19988;-74
2022/12/21 05:11:23;;;;;;;;;;;;;;;5.60;100.00;96309.50;5072956;28;20460;-74
2022/12/21 05:13:50;;;;;;;;;;;;;;;5.64;100.00;96320.34;5073494;28;19971;-74
2022/12/21 05:16:18;;;;;;;;;;;;;;;5.66;100.00;96306.13;5073520;28;19959;-74
2022/12/21 05:18:44;;;;;;;;;;;;;;;5.69;100.00;96308.38;5055546;28;19950;-74
2022/12/21 05:21:11;;;;;;;;;;;;;;;5.72;100.00;96309.00;5073608;28;19958;-74
2022/12/21 05:23:37;;;;;;;;;;;;;;;5.73;100.00;96302.78;5055490;28;19957;-74
2022/12/21 05:26:04;;;;;;;;;;;;;;;5.74;100.00;96305.19;5074268;28;19955;-74
2022/12/21 05:28:30;;;;;;;;;;;;;;;5.77;100.00;96301.41;5073610;28;19952;-74
2022/12/21 05:30:56;;;;;;;;;;;;;;;5.76;100.00;96305.81;5073237;28;19955;-74
2022/12/21 05:33:22;;;;;;;;;;;;;;;5.76;100.00;96303.22;5073116;28;19956;-74
2022/12/21 05:35:48;;;;;;;;;;;;;;;5.77;100.00;96304.00;5073242;28;19952;-74
2022/12/21 05:38:14;;;;;;;;;;;;;;;5.77;100.00;96306.59;5055401;28;19962;-73
2022/12/21 05:40:45;;;;;;;;;;;;;;;5.77;100.00;96304.81;5073319;28;19951;-74
2022/12/21 05:43:11;;;;;;;;;;;;;;;5.77;100.00;96298.81;5073131;28;19951;-74
2022/12/21 05:45:37;;;;;;;;;;;;;;;5.80;100.00;96296.63;5076946;28;20002;-74
2022/12/21 05:48:03;;;;;;;;;;;;;;;5.84;100.00;96299.66;5077319;28;19953;-74
2022/12/21 05:50:29;;;;;;;;;;;;;;;5.88;100.00;96290.47;5059185;28;19950;-75
2022/12/21 05:52:54;;;;;;;;;;;;;;;5.90;100.00;96297.09;5076955;28;20329;-74
2022/12/21 05:55:20;;;;;;;;;;;;;;;5.95;100.00;96286.13;5076130;28;19950;-74
2022/12/21 05:57:46;;;;;;;;;;;;;;;5.98;100.00;96292.75;5077050;28;19953;-74
2022/12/21 06:00:13;;;;;;;;;;;;;;;6.01;100.00;96292.38;5076802;28;20046;-74
2022/12/21 06:02:38;;;;;;;;;;;;;;;6.04;100.00;96289.38;5076915;28;19978;-75
2022/12/21 06:05:05;;;;;;;;;;;;;;;6.06;100.00;96293.38;5076846;28;19949;-74
2022/12/21 06:07:30;;;;;;;;;;;;;;;6.09;100.00;96287.00;5076903;28;19947;-74
2022/12/21 06:09:56;;;;;;;;;;;;;;;6.11;100.00;96292.84;5076026;28;19954;-74
2022/12/21 06:12:22;;;;;;;;;;;;;;;6.10;100.00;96291.22;5076701;28;19950;-75
2022/12/21 06:14:48;;;;;;;;;;;;;;;6.14;100.00;96292.44;5076657;28;19967;-75
2022/12/21 06:17:14;;;;;;;;;;;;;;;6.16;100.00;96285.22;5076754;28;19945;-74
2022/12/21 06:19:40;;;;;;;;;;;;;;;6.17;100.00;96294.63;5076536;28;20451;-75
2022/12/21 06:22:05;;;;;;;;;;;;;;;6.19;100.00;96292.66;5076316;28;19956;-74
2022/12/21 06:24:31;;;;;;;;;;;;;;;6.20;100.00;96285.66;5076243;28;19958;-74
2022/12/21 06:26:57;;;;;;;;;;;;;;;6.22;100.00;96296.69;5076361;28;20004;-74
2022/12/21 06:29:23;;;;;;;;;;;;;;;6.23;100.00;96300.88;5075554;28;19954;-74
2022/12/21 06:31:49;;;;;;;;;;;;;;;6.23;100.00;96298.28;5076167;28;19982;-75
2022/12/21 06:34:15;;;;;;;;;;;;;;;6.21;100.00;96295.84;5076273;28;19960;-75
2022/12/21 06:36:40;;;;;;;;;;;;;;;6.24;100.00;96294.69;5076026;28;20386;-75
2022/12/21 06:39:06;;;;;;;;;;;;;;;6.28;100.00;96295.91;5076523;28;19962;-74
2022/12/21 06:41:32;;;;;;;;;;;;;;;6.30;100.00;96291.31;5076068;28;19959;-75
2022/12/21 06:43:58;;;;;;;;;;;;;;;6.29;100.00;96289.69;5076117;28;20000;-74
2022/12/21 06:46:24;;;;;;;;;;;;;;;6.31;100.00;96287.69;5076036;28;19950;-74
2022/12/21 06:48:50;;;;;;;;;;;;;;;6.35;100.00;96293.31;5075852;28;20465;-74
2022/12/21 06:51:17;;;;;;;;;;;;;;;6.36;100.00;96287.09;5076648;28;19962;-74
2022/12/21 06:53:44;;;;;;;;;;;;;;;6.37;100.00;96288.72;5075683;28;19959;-74
2022/12/21 06:56:14;;;;;;;;;;;;;;;6.37;100.00;96294.72;5074713;28;19955;-74
2022/12/21 06:58:40;;;;;;;;;;;;;;;6.38;100.00;96298.13;5076277;28;19949;-74
2022/12/21 07:01:07;;;;;;;;;;;;;;;6.36;100.00;96300.94;5076067;28;19953;-74
2022/12/21 07:03:33;;;;;;;;;;;;;;;6.35;100.00;96301.13;5075625;28;19968;-74
2022/12/21 07:06:00;;;;;;;;;;;;;;;6.34;100.00;96308.16;5075911;28;19965;-74
2022/12/21 07:08:26;;;;;;;;;;;;;;;6.35;100.00;96307.16;5075220;28;19947;-74
2022/12/21 07:11:03;;;;;;;;;;;;;;;6.37;100.00;96309.56;5075696;28;19956;-74
2022/12/21 07:13:29;;;;;;;;;;;;;;;6.37;100.00;96307.75;5075520;28;19961;-74
2022/12/21 07:15:55;;;;;;;;;;;;;;;6.39;100.00;96308.38;5075529;28;19948;-75
2022/12/21 07:18:22;;;;;;;;;;;;;;;6.39;100.00;96310.97;5057585;28;19949;-74
2022/12/21 07:20:48;;;;;;;;;;;;;;;6.38;100.00;96311.16;5075643;28;19948;-74
2022/12/21 07:23:14;;;;;;;;;;;;;;;6.40;100.00;96306.56;5075222;28;20011;-74
2022/12/21 07:25:40;;;;;;;;;;;;;;;6.42;100.00;96307.97;5075476;28;19957;-74
2022/12/21 07:28:06;;;;;;;;;;;;;;;6.48;100.00;96306.38;5075350;28;19949;-74
2022/12/21 07:30:32;;;;;;;;;;;;;;;6.52;100.00;96309.41;5075256;28;19960;-74
2022/12/21 07:32:58;;;;;;;;;;;;;;;6.53;100.00;96311.84;5074766;28;19955;-74
2022/12/21 07:35:24;;;;;;;;;;;;;;;6.55;100.00;96314.22;5074936;28;20017;-74
2022/12/21 07:37:50;;;;;;;;;;;;;;;6.56;100.00;96311.44;5075104;28;19976;-74
2022/12/21 07:40:17;;;;;;;;;;;;;;;6.54;100.00;96313.44;5075157;28;20418;-74
2022/12/21 07:42:44;;;;;;;;;;;;;;;6.55;100.00;96309.84;5074843;28;19957;-74
2022/12/21 07:45:10;;;;;;;;;;;;;;;6.56;100.00;96316.63;5075028;28;19958;-75
2022/12/21 07:47:36;;;;;;;;;;;;;;;6.57;100.00;96318.22;5074903;28;19949;-74
2022/12/21 07:50:02;;;;;;;;;;;;;;;6.57;100.00;96317.44;5074604;28;19960;-74
2022/12/21 07:52:30;;;;;;;;;;;;;;;6.57;100.00;96320.03;5075278;28;19952;-74
2022/12/21 07:54:56;;;;;;;;;;;;;;;6.57;100.00;96322.66;5074757;28;19959;-74
2022/12/21 07:57:22;;;;;;;;;;;;;;;6.57;100.00;96327.84;5074511;28;19962;-75
2022/12/21 07:59:48;;;;;;;;;;;;;;;6.58;100.00;96332.09;5074546;28;19964;-75
2022/12/21 08:02:14;;;;;;;;;;;;;;;6.58;100.00;96324.28;5074802;28;20403;-74
2022/12/21 08:04:40;;;;;;;;;;;;;;;6.57;100.00;96333.88;5074482;28;19944;-74
2022/12/21 08:07:05;;;;;;;;;;;;;;;6.58;100.00;96337.28;5056265;28;19957;-74
2022/12/21 08:09:32;;;;;;;;;;;;;;;6.55;100.00;96335.88;5074475;28;20001;-74
2022/12/21 08:11:58;;;;;;;;;;;;;;;6.55;100.00;96337.66;5074271;28;20399;-74
2022/12/21 08:14:24;;;;;;;;;;;;;;;6.55;100.00;96340.28;5074334;28;19969;-74
2022/12/21 08:16:50;;;;;;;;;;;;;;;6.53;100.00;96337.06;5074413;28;19976;-74
2022/12/21 08:19:16;;;;;;;;;;;;;;;6.51;100.00;96345.09;5074139;28;19973;-75
2022/12/21 08:21:42;;;;;;;;;;;;;;;6.51;100.00;96350.31;5074093;28;19957;-74
2022/12/21 08:24:08;;;;;;;;;;;;;;;6.50;100.00;96348.69;5074195;28;19952;-74
2022/12/21 08:26:34;;;;;;;;;;;;;;;6.49;100.00;96345.28;5074148;28;20304;-74
2022/12/21 08:28:59;;;;;;;;;;;;;;;6.47;100.00;96349.88;5074304;28;19973;-74
2022/12/21 08:31:26;;;;;;;;;;;;;;;6.46;100.00;96356.06;5074105;28;19956;-74
2022/12/21 08:33:52;;;;;;;;;;;;;;;6.46;100.00;96357.88;5073880;28;20411;-74
2022/12/21 08:36:22;;;;;;;;;;;;;;;6.45;100.00;96351.88;5073913;28;19971;-74
2022/12/21 08:38:48;;;;;;;;;;;;;;;6.45;100.00;96356.28;5074203;28;19954;-74
2022/12/21 08:41:14;;;;;;;;;;;;;;;6.45;100.00;96358.88;5073954;28;19950;-74
2022/12/21 08:43:40;;;;;;;;;;;;;;;6.45;100.00;96364.91;5073519;28;20335;-74
2022/12/21 08:46:07;;;;;;;;;;;;;;;6.46;100.00;96361.28;5073424;28;19982;-74
2022/12/21 08:48:34;;;;;;;;;;;;;;;6.46;100.00;96360.47;5074127;28;20319;-74
2022/12/21 08:51:00;;;;;;;;;;;;;;;6.46;100.00;96368.31;5073794;28;20414;-75
2022/12/21 08:53:26;;;;;;;;;;;;;;;6.46;100.00;96363.09;5074031;28;19948;-74
2022/12/21 08:55:53;;;;;;;;;;;;;;;6.46;100.00;96373.50;5073767;28;19946;-75
2022/12/21 08:58:19;;;;;;;;;;;;;;;6.46;100.00;96371.69;5073266;28;20425;-74
2022/12/21 09:00:45;;;;;;;;;;;;;;;6.46;100.00;96366.50;5074026;28;19962;-74
2022/12/21 09:03:11;;;;;;;;;;;;;;;6.45;100.00;96372.72;5073773;28;19947;-75
2022/12/21 09:05:37;;;;;;;;;;;;;;;6.45;100.00;96366.72;5073741;28;19951;-74
2022/12/21 09:08:04;;;;;;;;;;;;;;;6.45;100.00;96366.72;5073710;28;19957;-74
2022/12/21 09:10:32;;;;;;;;;;;;;;;6.46;100.00;96368.31;5073587;28;20285;-74
2022/12/21 09:12:58;;;;;;;;;;;;;;;6.46;100.00;96365.69;5073881;28;19968;-74
2022/12/21 09:15:23;;;;;;;;;;;;;;;6.44;100.00;96358.06;5073296;28;19962;-75
2022/12/21 09:17:49;;;;;;;;;;;;;;;6.43;100.00;96364.28;5073442;28;19950;-74
2022/12/21 09:20:15;;;;;;;;;;;;;;;6.44;100.00;96362.47;5077125;28;19950;-74
2022/12/21 09:22:41;;;;;;;;;;;;;;;6.45;100.00;96366.72;5077642;28;19965;-76
2022/12/21 09:25:07;;;;;;;;;;;;;;;6.45;100.00;96366.72;5077668;28;19947;-74
2022/12/21 09:27:33;;;;;;;;;;;;;;;6.45;100.00;96358.88;5077457;28;19956;-74
2022/12/21 09:29:59;;;;;;;;;;;;;;;6.47;100.00;96369.91;5077439;28;19953;-74
2022/12/21 09:32:25;;;;;;;;;;;;;;;6.47;100.00;96364.72;5077568;28;20031;-74
2022/12/21 09:34:51;;;;;;;;;;;;;;;6.48;100.00;96356.69;5077301;28;20444;-74
2022/12/21 09:37:17;;;;;;;;;;;;;;;6.50;100.00;96366.91;5077681;28;20464;-74
2022/12/21 09:39:43;;;;;;;;;;;;;;;6.53;100.00;96358.72;5077154;28;20041;-75
2022/12/21 09:42:16;;;;;;;;;;;;;;;6.58;100.00;96355.53;5077226;28;19947;-74
2022/12/21 09:44:58;;;;;;;;;;;;;;;6.59;100.00;96355.31;5077499;28;19946;-74
2022/12/21 09:47:38;;;;;;;;;;;;;;;6.66;100.00;96365.78;5077648;28;19975;-74
2022/12/21 09:50:07;;;;;;;;;;;;;;;6.71;100.00;96363.38;5077062;28;19948;-74
2022/12/21 09:52:42;;;;;;;;;;;;;;;6.78;100.00;96366.00;5077175;28;19945;-74
2022/12/21 09:55:14;;;;;;;;;;;;;;;6.83;100.00;96368.84;5077304;28;19972;-74
2022/12/21 09:57:40;;;;;;;;;;;;;;;6.88;100.00;96372.47;5077194;28;19953;-74
2022/12/21 10:00:16;;;;;;;;;;;;;;;6.93;100.00;96368.47;5077396;28;19965;-74
2022/12/21 10:03:01;;;;;;;;;;;;;;;6.98;100.00;96374.72;5060292;28;19972;-77
2022/12/21 10:05:39;;;;;;;;;;;;;;;7.02;100.00;96367.31;5064895;28;19950;-74
2022/12/21 10:08:06;;;;;;;;;;;;;;;7.04;100.00;96376.53;5077163;28;20012;-73
2022/12/21 10:10:32;;;;;;;;;;;;;;;7.06;100.00;96371.13;5077212;28;19949;-75
2022/12/21 10:13:06;;;;;;;;;;;;;;;7.08;100.00;96369.91;5076610;28;19961;-74
2022/12/21 10:15:38;;;;;;;;;;;;;;;7.14;100.00;96375.34;5076548;28;19962;-74
2022/12/21 10:18:23;;;;;;;;;;;;;;;7.16;100.00;96376.75;5076572;28;19976;-74
2022/12/21 10:20:53;;;;;;;;;;;;;;;7.21;100.00;96381.38;5058661;28;19948;-74
2022/12/21 10:23:25;;;;;;;;;;;;;;;7.25;100.00;96372.97;5076803;28;19953;-74
2022/12/21 10:25:58;;;;;;;;;;;;;;;7.28;100.00;96376.97;5076485;28;19951;-74
2022/12/21 10:28:30;;;;;;;;;;;;;;;7.32;100.00;96370.34;5076589;28;19950;-74
2022/12/21 10:31:07;;;;;;;;;;;;;;;7.36;100.00;96381.19;5076250;28;19951;-74
2022/12/21 10:33:40;;;;;;;;;;;;;;;7.37;100.00;96378.41;5076484;28;19949;-74
2022/12/21 10:36:06;;;;;;;;;;;;;;;7.37;100.00;96378.41;5075916;28;19966;-74
2022/12/21 10:38:33;;;;;;;;;;;;;;;7.37;100.00;96378.41;5076180;28;19966;-75
2022/12/21 10:41:01;;;;;;;;;;;;;;;7.36;100.00;96373.38;5076252;28;20316;-74
2022/12/21 10:43:36;;;;;;;;;;;;;;;7.35;100.00;96369.97;5075948;28;19954;-74
2022/12/21 10:46:02;;;;;;;;;;;;;;;7.35;100.00;96385.63;5058185;28;19954;-74
2022/12/21 10:48:28;;;;;;;;;;;;;;;7.35;100.00;96375.19;5075809;28;19952;-74
2022/12/21 10:50:59;;;;;;;;;;;;;;;7.38;100.00;96369.56;5058179;28;20469;-75
2022/12/21 10:53:26;;;;;;;;;;;;;;;7.41;100.00;96374.41;5076092;28;19949;-74
2022/12/21 10:55:54;;;;;;;;;;;;;;;7.43;100.00;96369.78;5076213;28;20352;-74
2022/12/21 10:58:22;;;;;;;;;;;;;;;7.42;100.00;96378.59;5075665;28;19952;-74
2022/12/21 11:00:54;;;;;;;;;;;;;;;7.42;100.00;96370.78;5075668;28;19958;-75
2022/12/21 11:03:28;;;;;;;;;;;;;;;7.46;100.00;96358.94;5075867;28;19948;-74
2022/12/21 11:05:54;;;;;;;;;;;;;;;7.57;100.00;96362.75;5075888;28;19952;-74
2022/12/21 11:08:30;;;;;;;;;;;;;;;7.79;100.00;96363.34;5075518;28;19952;-74
2022/12/21 11:10:58;;;;;;;;;;;;;;;7.96;100.00;96363.75;5075650;28;19954;-74
2022/12/21 11:13:25;;;;;;;;;;;;;;;8.05;100.00;96357.28;5057722;28;19969;-75
2022/12/21 11:15:53;;;;;;;;;;;;;;;8.06;100.00;96356.31;5075226;28;20334;-75
2022/12/21 11:18:30;;;;;;;;;;;;;;;8.01;100.00;96348.25;5075466;28;19946;-74
2022/12/21 11:20:56;;;;;;;;;;;;;;;7.99;100.00;96344.25;5075550;28;19955;-74
2022/12/21 11:23:22;;;;;;;;;;;;;;;7.98;100.00;96340.03;5075559;28;19953;-74
2022/12/21 11:25:48;;;;;;;;;;;;;;;7.96;100.00;96355.91;5075210;28;19960;-75
2022/12/21 11:28:17;;;;;;;;;;;;;;;7.94;100.00;96339.66;5075205;28;20044;-74
2022/12/21 11:30:50;;;;;;;;;;;;;;;7.96;100.00;96339.41;5075337;28;19955;-74
2022/12/21 11:33:17;;;;;;;;;;;;;;;7.96;100.00;96327.19;5075446;28;19949;-74
2022/12/21 11:36:03;;;;;;;;;;;;;;;8.00;100.00;96332.78;5074827;28;20436;-74
2022/12/21 11:38:33;;;;;;;;;;;;;;;8.00;100.00;96338.84;5074871;28;20306;-74
2022/12/21 11:40:59;;;;;;;;;;;;;;;8.00;100.00;96333.59;5074772;28;20423;-74
2022/12/21 11:43:25;;;;;;;;;;;;;;;8.01;100.00;96332.59;5074657;28;19956;-74
2022/12/21 11:46:13;;;;;;;;;;;;;;;8.08;100.00;96345.63;5074810;28;19960;-74
2022/12/21 11:48:51;;;;;;;;;;;;;;;8.14;100.00;96340.38;5074474;28;19955;-74
2022/12/21 11:51:28;;;;;;;;;;;;;;;8.23;100.00;96338.38;5074779;28;19962;-75
2022/12/21 11:54:00;;;;;;;;;;;;;;;8.29;100.00;96334.94;5063043;28;19948;-74
2022/12/21 11:56:26;;;;;;;;;;;;;;;8.28;100.00;96330.72;5074593;28;19944;-74
2022/12/21 11:59:01;;;;;;;;;;;;;;;8.27;100.00;96331.72;5074345;28;19962;-74
2022/12/21 12:01:39;;;;;;;;;;;;;;;8.24;100.00;96328.72;5074639;28;19961;-74
2022/12/21 12:04:20;;;;;;;;;;;;;;;8.22;100.00;96336.75;5061962;28;19958;-74
2022/12/21 12:07:05;;;;;;;;;;;;;;;8.20;100.00;96330.94;5056566;28;19960;-74
2022/12/21 12:09:48;;;;;;;;;;;;;;;8.18;100.00;96330.34;5074922;28;19951;-74
2022/12/21 12:12:26;;;;;;;;;;;;;;;8.20;100.00;96320.47;5074563;28;19954;-74
2022/12/21 12:14:55;;;;;;;;;;;;;;;8.22;100.00;96315.06;5074218;28;20420;-74
2022/12/21 12:17:21;;;;;;;;;;;;;;;8.25;100.00;96318.06;5074278;28;19959;-74
2022/12/21 12:19:50;;;;;;;;;;;;;;;8.28;100.00;96316.84;5074055;28;19955;-75
2022/12/21 12:22:39;;;;;;;;;;;;;;;8.30;100.00;96314.84;5074331;28;19948;-74
2022/12/21 12:25:24;;;;;;;;;;;;;;;8.33;100.00;96312.59;5051802;28;19960;-74
2022/12/21 12:28:19;;;;;;;;;;;;;;;8.37;100.00;96305.16;5074038;28;19953;-74
2022/12/21 12:31:03;;;;;;;;;;;;;;;8.42;100.00;96301.94;5002345;28;19961;-75
2022/12/21 12:33:35;;;;;;;;;;;;;;;8.46;100.00;96301.34;5074117;28;19948;-74
2022/12/21 12:36:05;;;;;;;;;;;;;;;8.50;100.00;96301.72;5073993;28;19980;-74
2022/12/21 12:38:31;;;;;;;;;;;;;;;8.54;100.00;96301.09;5074136;28;19955;-74
2022/12/21 12:41:24;;;;;;;;;;;;;;;8.61;100.00;96287.19;5073739;28;19959;-74
2022/12/21 12:43:55;;;;;;;;;;;;;;;8.70;100.00;96296.41;5050475;28;19957;-74
2022/12/21 12:46:44;;;;;;;;;;;;;;;8.75;100.00;96291.34;5073893;28;20431;-74
2022/12/21 12:49:28;;;;;;;;;;;;;;;8.82;100.00;96286.88;5073736;28;19955;-74
2022/12/21 12:52:06;;;;;;;;;;;;;;;8.88;100.00;96290.44;5061269;28;19949;-74
2022/12/21 12:54:43;;;;;;;;;;;;;;;8.91;100.00;96290.84;5072790;28;19972;-74
2022/12/21 12:57:12;;;;;;;;;;;;;;;8.94;100.00;96287.00;5073867;28;19951;-74
2022/12/21 12:59:38;;;;;;;;;;;;;;;8.98;100.00;96284.78;5055756;28;20324;-75
2022/12/21 13:02:19;;;;;;;;;;;;;;;9.00;100.00;96285.34;5073417;28;19982;-74
2022/12/21 13:05:05;;;;;;;;;;;;;;;9.03;100.00;96288.38;5073980;28;20339;-74
2022/12/21 13:07:39;;;;;;;;;;;;;;;9.05;100.00;96291.56;5065766;28;19953;-74
2022/12/21 13:10:14;;;;;;;;;;;;;;;9.06;100.00;96289.75;5073437;28;19950;-74